createdAt,value
2023-05-17T00:00:17.167Z,76.02
2023-05-17T00:03:04.866Z,75.72
2023-05-17T00:05:32.757Z,76.09
2023-05-17T00:08:00.497Z,76.60
2023-05-17T00:10:28.359Z,77.28
2023-05-17T00:12:56.195Z,76.54
2023-05-17T00:15:23.912Z,76.62
2023-05-17T00:17:51.742Z,76.25
2023-05-17T00:20:19.640Z,76.26
2023-05-17T00:22:47.532Z,76.55
2023-05-17T00:25:15.356Z,77.45
2023-05-17T00:27:43.034Z,77.81
2023-05-17T00:30:11.138Z,76.66
2023-05-17T00:32:38.900Z,78.51
2023-05-17T00:35:07.764Z,77.32
2023-05-17T00:37:35.714Z,77.13
2023-05-17T00:40:05.508Z,78.28
2023-05-17T00:42:33.273Z,77.96
2023-05-17T00:45:00.971Z,78.02
2023-05-17T00:47:28.779Z,77.80
2023-05-17T00:49:56.694Z,78.98
2023-05-17T00:52:24.554Z,78.13
2023-05-17T00:54:52.834Z,77.83
2023-05-17T00:57:20.566Z,77.93
2023-05-17T00:59:49.556Z,79.07
2023-05-17T01:02:18.146Z,79.88
2023-05-17T01:04:46.941Z,79.82
2023-05-17T01:07:15.789Z,78.67
2023-05-17T01:09:44.481Z,78.59
2023-05-17T01:12:47.067Z,78.63
2023-05-17T01:15:34.850Z,80.36
2023-05-17T01:18:34.536Z,79.26
2023-05-17T01:21:12.543Z,79.36
2023-05-17T01:24:29.986Z,80.47
2023-05-17T01:27:00.459Z,80.42
2023-05-17T01:29:30.079Z,79.65
2023-05-17T01:31:59.710Z,79.60
2023-05-17T01:34:29.440Z,79.82
2023-05-17T01:36:58.361Z,79.48
2023-05-17T01:39:27.400Z,80.60
2023-05-17T01:42:05.088Z,80.95
2023-05-17T01:44:54.976Z,80.48
2023-05-17T01:47:40.802Z,80.04
2023-05-17T01:50:12.557Z,80.76
2023-05-17T01:52:59.622Z,80.07
2023-05-17T01:55:51.277Z,81.66
2023-05-17T01:58:22.013Z,80.26
2023-05-17T02:00:52.720Z,80.13
2023-05-17T02:03:21.362Z,81.42
2023-05-17T02:05:49.103Z,80.60
2023-05-17T02:08:16.806Z,80.30
2023-05-17T02:10:44.487Z,81.03
2023-05-17T02:13:13.019Z,80.72
2023-05-17T02:15:40.766Z,80.41
2023-05-17T02:18:08.595Z,81.90
2023-05-17T02:20:36.759Z,80.96
2023-05-17T02:23:04.462Z,81.52
2023-05-17T02:25:32.355Z,80.72
2023-05-17T02:28:00.102Z,80.43
2023-05-17T02:30:27.847Z,80.73
2023-05-17T02:32:57.074Z,81.31
2023-05-17T02:35:24.843Z,80.91
2023-05-17T02:37:52.714Z,81.90
2023-05-17T02:40:20.453Z,82.24
2023-05-17T02:42:48.210Z,81.15
2023-05-17T02:45:15.889Z,81.14
2023-05-17T02:47:43.800Z,81.54
2023-05-17T02:50:11.644Z,82.57
2023-05-17T02:52:39.640Z,81.49
2023-05-17T02:55:07.845Z,82.58
2023-05-17T02:57:35.674Z,82.23
2023-05-17T03:00:04.232Z,82.22
2023-05-17T03:02:32.147Z,82.84
2023-05-17T03:05:00.138Z,82.41
2023-05-17T03:07:27.886Z,82.19
2023-05-17T03:09:55.635Z,82.26
2023-05-17T03:12:23.306Z,82.04
2023-05-17T03:14:51.102Z,82.54
2023-05-17T03:17:18.802Z,82.50
2023-05-17T03:19:46.652Z,82.57
2023-05-17T03:22:14.419Z,82.35
2023-05-17T03:24:42.161Z,82.56
2023-05-17T03:27:09.925Z,81.96
2023-05-17T03:29:37.810Z,82.40
2023-05-17T03:32:06.632Z,82.49
2023-05-17T03:34:34.382Z,82.57
2023-05-17T03:37:02.170Z,82.06
2023-05-17T03:39:29.983Z,82.20
2023-05-17T03:41:57.955Z,82.90
2023-05-17T03:44:25.848Z,83.01
2023-05-17T03:46:53.666Z,83.19
2023-05-17T03:49:22.074Z,82.91
2023-05-17T03:51:49.762Z,82.56
2023-05-17T03:54:17.478Z,83.02
2023-05-17T03:56:50.227Z,83.11
2023-05-17T03:59:18.029Z,82.87
2023-05-17T04:01:45.997Z,82.99
2023-05-17T04:04:13.824Z,83.35
2023-05-17T04:06:41.911Z,83.24
2023-05-17T04:09:11.172Z,83.90
2023-05-17T04:11:40.554Z,83.93
2023-05-17T04:14:08.499Z,83.60
2023-05-17T04:16:36.452Z,83.50
2023-05-17T04:19:04.283Z,83.86
2023-05-17T04:21:32.222Z,84.37
2023-05-17T04:23:59.959Z,84.05
2023-05-17T04:26:29.299Z,83.97
2023-05-17T04:28:57.208Z,83.92
2023-05-17T04:31:24.997Z,84.09
2023-05-17T04:33:52.815Z,83.74
2023-05-17T04:36:20.666Z,83.75
2023-05-17T04:38:48.484Z,83.94
2023-05-17T04:41:16.344Z,83.71
2023-05-17T04:43:44.116Z,83.99
2023-05-17T04:46:12.114Z,84.25
2023-05-17T04:48:40.031Z,84.01
2023-05-17T04:51:07.843Z,84.14
2023-05-17T04:53:35.749Z,84.00
2023-05-17T04:56:04.353Z,84.19
2023-05-17T04:58:32.396Z,84.03
2023-05-17T05:01:00.163Z,84.63
2023-05-17T05:03:28.069Z,84.63
2023-05-17T05:05:56.120Z,84.07
2023-05-17T05:08:23.990Z,84.50
2023-05-17T05:10:51.940Z,84.99
2023-05-17T05:13:19.716Z,84.34
2023-05-17T05:15:47.377Z,84.96
2023-05-17T05:18:15.203Z,84.91
2023-05-17T05:20:43.501Z,85.14
2023-05-17T05:23:11.333Z,85.51
2023-05-17T05:25:41.432Z,85.54
2023-05-17T05:28:09.309Z,85.87
2023-05-17T05:30:37.277Z,85.68
2023-05-17T05:33:05.292Z,85.46
2023-05-17T05:35:33.308Z,86.17
2023-05-17T05:38:01.362Z,85.04
2023-05-17T05:40:29.422Z,85.72
2023-05-17T05:42:57.712Z,85.98
2023-05-17T05:45:25.496Z,85.21
2023-05-17T05:47:53.379Z,85.35
2023-05-17T05:50:21.269Z,85.81
2023-05-17T05:52:48.965Z,85.69
2023-05-17T05:55:16.757Z,86.02
2023-05-17T05:57:44.447Z,85.75
2023-05-17T06:00:13.133Z,85.57
2023-05-17T06:02:41.296Z,85.34
2023-05-17T06:05:09.730Z,86.00
2023-05-17T06:07:37.480Z,85.65
2023-05-17T06:10:06.392Z,85.76
2023-05-17T06:12:34.110Z,85.78
2023-05-17T06:15:01.911Z,85.41
2023-05-17T06:17:29.709Z,85.46
2023-05-17T06:19:57.544Z,85.54
2023-05-17T06:22:25.432Z,86.19
2023-05-17T06:24:53.288Z,86.02
2023-05-17T06:27:21.031Z,85.63
2023-05-17T06:29:48.809Z,85.78
2023-05-17T06:32:16.487Z,85.97
2023-05-17T06:34:44.246Z,86.12
2023-05-17T06:37:12.110Z,86.42
2023-05-17T06:39:40.063Z,86.49
2023-05-17T06:42:10.607Z,86.05
2023-05-17T06:44:38.467Z,86.10
2023-05-17T06:47:06.190Z,86.07
2023-05-17T06:49:34.649Z,86.12
2023-05-17T06:52:03.791Z,85.89
2023-05-17T06:54:31.999Z,86.15
2023-05-17T06:57:04.246Z,86.23
2023-05-17T06:59:31.948Z,86.18
2023-05-17T07:02:00.338Z,86.15
2023-05-17T07:04:28.376Z,86.57
2023-05-17T07:06:56.288Z,86.64
2023-05-17T07:09:24.289Z,86.49
2023-05-17T07:11:52.325Z,86.52
2023-05-17T07:14:20.118Z,86.25
2023-05-17T07:16:49.430Z,86.66
2023-05-17T07:19:17.347Z,86.49
2023-05-17T07:21:45.690Z,86.70
2023-05-17T07:24:13.650Z,86.74
2023-05-17T07:26:41.595Z,86.61
2023-05-17T07:29:09.419Z,86.76
2023-05-17T07:31:37.351Z,86.45
2023-05-17T07:34:05.345Z,86.70
2023-05-17T07:36:33.171Z,86.87
2023-05-17T07:39:01.051Z,86.67
2023-05-17T07:41:28.994Z,86.83
2023-05-17T07:43:56.757Z,86.93
2023-05-17T07:46:24.550Z,87.00
2023-05-17T07:48:52.460Z,86.90
2023-05-17T07:51:20.420Z,87.31
2023-05-17T07:53:48.184Z,87.24
2023-05-17T07:56:16.005Z,87.56
2023-05-17T07:58:43.852Z,87.43
2023-05-17T08:01:14.419Z,87.47
2023-05-17T08:03:48.161Z,87.67
2023-05-17T08:06:17.347Z,88.04
2023-05-17T08:08:45.371Z,87.80
2023-05-17T08:11:14.179Z,87.64
2023-05-17T08:13:42.341Z,87.49
2023-05-17T08:16:14.289Z,87.41
2023-05-17T08:18:43.671Z,87.37
2023-05-17T08:21:11.988Z,87.69
2023-05-17T08:23:41.847Z,87.77
2023-05-17T08:26:09.718Z,87.83
2023-05-17T08:28:37.434Z,87.88
2023-05-17T08:31:06.741Z,88.50
2023-05-17T08:33:34.689Z,88.15
2023-05-17T08:36:04.487Z,88.10
2023-05-17T08:38:32.228Z,88.32
2023-05-17T08:41:00.442Z,88.01
2023-05-17T08:43:28.798Z,87.90
2023-05-17T08:45:58.209Z,88.03
2023-05-17T08:48:31.619Z,88.51
2023-05-17T08:51:00.346Z,88.13
2023-05-17T08:53:29.386Z,88.61
2023-05-17T08:56:02.418Z,88.45
2023-05-17T08:58:48.033Z,88.34
2023-05-17T09:01:25.841Z,88.39
2023-05-17T09:03:55.286Z,88.36
2023-05-17T09:06:24.575Z,88.32
2023-05-17T09:08:58.727Z,88.38
2023-05-17T09:11:33.228Z,88.61
2023-05-17T09:14:03.221Z,88.48
2023-05-17T09:16:36.579Z,88.52
2023-05-17T09:19:10.059Z,88.37
2023-05-17T09:21:39.001Z,88.51
2023-05-17T09:24:08.608Z,88.58
2023-05-17T09:26:46.090Z,88.37
2023-05-17T09:29:16.206Z,88.31
2023-05-17T09:31:45.029Z,88.39
2023-05-17T09:34:13.015Z,88.19
2023-05-17T09:36:44.500Z,88.29
2023-05-17T09:39:15.293Z,88.15
2023-05-17T09:41:48.388Z,88.29
2023-05-17T09:44:16.681Z,88.50
2023-05-17T09:46:47.413Z,88.41
2023-05-17T09:49:16.908Z,88.28
2023-05-17T09:51:47.908Z,88.37
2023-05-17T09:54:17.894Z,88.37
2023-05-17T09:56:53.918Z,88.21
2023-05-17T09:59:23.469Z,88.27
2023-05-17T10:01:51.627Z,88.10
2023-05-17T10:04:24.491Z,88.09
2023-05-17T10:06:53.913Z,88.00
2023-05-17T10:09:23.708Z,87.99
2023-05-17T10:11:55.310Z,87.90
2023-05-17T10:14:33.955Z,87.74
2023-05-17T10:17:03.541Z,87.76
2023-05-17T10:19:32.474Z,87.78
2023-05-17T10:22:11.601Z,87.57
2023-05-17T10:24:51.541Z,87.69
2023-05-17T10:27:21.895Z,87.70
2023-05-17T10:29:50.943Z,87.58
2023-05-17T10:32:23.615Z,87.29
2023-05-17T10:35:05.925Z,87.38
2023-05-17T10:37:40.214Z,87.45
2023-05-17T10:40:13.483Z,87.31
2023-05-17T10:42:46.907Z,87.32
2023-05-17T10:45:14.929Z,87.24
2023-05-17T10:47:45.278Z,87.27
2023-05-17T10:50:25.744Z,87.24
2023-05-17T10:52:56.531Z,87.15
2023-05-17T10:55:35.239Z,87.19
2023-05-17T10:58:20.130Z,87.08
2023-05-17T11:00:53.159Z,87.19
2023-05-17T11:03:30.701Z,87.16
2023-05-17T11:06:13.166Z,87.25
2023-05-17T11:09:23.956Z,87.43
2023-05-17T11:12:09.797Z,87.11
2023-05-17T11:14:53.429Z,87.36
2023-05-17T11:17:22.116Z,87.46
2023-05-17T11:19:59.757Z,87.43
2023-05-17T11:22:34.155Z,87.63
2023-05-17T11:25:07.499Z,87.49
2023-05-17T11:27:43.760Z,87.56
2023-05-17T11:30:19.644Z,87.49
2023-05-17T11:32:50.139Z,87.44
2023-05-17T11:35:20.197Z,87.60
2023-05-17T11:37:52.847Z,87.56
2023-05-17T11:40:28.282Z,87.37
2023-05-17T11:43:12.347Z,87.39
2023-05-17T11:45:53.413Z,87.33
2023-05-17T11:48:23.728Z,87.49
2023-05-17T11:50:54.800Z,87.40
2023-05-17T11:53:24.762Z,87.05
2023-05-17T11:55:53.135Z,87.30
2023-05-17T11:58:25.398Z,87.17
2023-05-17T12:00:55.482Z,87.29
2023-05-17T12:03:30.055Z,87.31
2023-05-17T12:06:16.029Z,87.32
2023-05-17T12:08:45.161Z,87.25
2023-05-17T12:11:15.535Z,87.18
2023-05-17T12:13:44.216Z,86.84
2023-05-17T12:16:17.556Z,87.09
2023-05-17T12:18:50.602Z,87.13
2023-05-17T12:21:21.242Z,86.87
2023-05-17T12:23:52.288Z,86.40
2023-05-17T12:26:22.646Z,86.34
2023-05-17T12:28:58.985Z,86.61
2023-05-17T12:31:37.535Z,86.47
2023-05-17T12:34:07.212Z,86.41
2023-05-17T12:36:39.376Z,86.52
2023-05-17T12:39:10.902Z,86.38
2023-05-17T12:41:39.861Z,86.20
2023-05-17T12:44:15.120Z,86.01
2023-05-17T12:46:44.354Z,85.95
2023-05-17T12:49:12.731Z,85.77
2023-05-17T12:51:45.458Z,85.77
2023-05-17T12:54:18.180Z,85.73
2023-05-17T12:56:46.689Z,85.19
2023-05-17T12:59:21.148Z,85.79
2023-05-17T13:01:51.189Z,85.67
2023-05-17T13:04:21.073Z,85.49
2023-05-17T13:06:54.335Z,85.43
2023-05-17T13:09:24.279Z,85.38
2023-05-17T13:11:56.421Z,85.45
2023-05-17T13:14:43.492Z,85.16
2023-05-17T13:17:25.789Z,85.01
2023-05-17T13:19:57.823Z,85.29
2023-05-17T13:22:26.727Z,84.91
2023-05-17T13:24:55.683Z,85.03
2023-05-17T13:27:23.875Z,84.95
2023-05-17T13:29:52.098Z,84.71
2023-05-17T13:32:22.032Z,84.73
2023-05-17T13:34:49.955Z,84.69
2023-05-17T13:37:17.784Z,84.44
2023-05-17T13:39:45.754Z,84.74
2023-05-17T13:42:13.955Z,84.59
2023-05-17T13:44:41.987Z,84.66
2023-05-17T13:47:09.919Z,84.64
2023-05-17T13:49:37.871Z,84.60
2023-05-17T13:52:09.259Z,84.14
2023-05-17T13:54:38.307Z,84.41
2023-05-17T13:57:07.863Z,84.15
2023-05-17T13:59:35.933Z,84.23
2023-05-17T14:02:04.371Z,84.29
2023-05-17T14:04:32.668Z,84.18
2023-05-17T14:07:03.515Z,83.95
2023-05-17T14:09:34.371Z,83.87
2023-05-17T14:12:03.045Z,83.99
2023-05-17T14:14:31.412Z,83.94
2023-05-17T14:16:59.774Z,83.81
2023-05-17T14:19:27.996Z,83.10
2023-05-17T14:21:56.153Z,82.44
2023-05-17T14:24:24.100Z,82.97
2023-05-17T14:26:52.286Z,82.89
2023-05-17T14:29:20.148Z,82.85
2023-05-17T14:31:47.989Z,82.24
2023-05-17T14:34:15.983Z,82.68
2023-05-17T14:36:43.950Z,82.50
2023-05-17T14:39:11.996Z,81.65
2023-05-17T14:41:39.803Z,81.16
2023-05-17T14:44:07.745Z,81.72
2023-05-17T14:46:35.897Z,81.57
2023-05-17T14:49:05.429Z,81.52
2023-05-17T14:51:33.553Z,81.09
2023-05-17T14:54:03.918Z,80.88
2023-05-17T14:56:32.698Z,81.05
2023-05-17T14:59:00.545Z,80.50
2023-05-17T15:01:28.698Z,80.59
2023-05-17T15:03:57.948Z,80.87
2023-05-17T15:06:26.399Z,80.51
2023-05-17T15:08:55.183Z,80.64
2023-05-17T15:11:23.787Z,80.55
2023-05-17T15:13:52.182Z,80.54
2023-05-17T15:16:21.322Z,80.29
2023-05-17T15:18:49.591Z,80.09
2023-05-17T15:21:19.216Z,80.28
2023-05-17T15:23:48.596Z,80.15
2023-05-17T15:26:17.021Z,80.31
2023-05-17T15:28:45.075Z,80.17
2023-05-17T15:31:12.996Z,80.41
2023-05-17T15:33:43.370Z,80.24
2023-05-17T15:36:13.227Z,80.49
2023-05-17T15:38:45.162Z,80.25
2023-05-17T15:41:19.455Z,80.58
2023-05-17T15:43:47.439Z,80.47
2023-05-17T15:46:16.946Z,80.53
2023-05-17T15:48:44.879Z,80.67
2023-05-17T15:51:12.917Z,80.89
2023-05-17T15:53:41.015Z,80.89
2023-05-17T15:56:10.351Z,80.73
2023-05-17T15:58:38.637Z,80.83
2023-05-17T16:01:06.613Z,80.61
2023-05-17T16:03:34.673Z,80.79
2023-05-17T16:06:05.146Z,80.66
2023-05-17T16:08:35.704Z,80.42
2023-05-17T16:11:03.543Z,80.87
2023-05-17T16:13:31.337Z,80.71
2023-05-17T16:16:00.608Z,80.70
2023-05-17T16:18:29.308Z,81.48
2023-05-17T16:21:03.809Z,81.30
2023-05-17T16:23:31.749Z,81.16
2023-05-17T16:26:00.188Z,81.00
2023-05-17T16:28:28.288Z,80.87
2023-05-17T16:30:56.349Z,81.24
2023-05-17T16:33:24.877Z,80.92
2023-05-17T16:35:53.022Z,80.74
2023-05-17T16:38:21.373Z,80.90
2023-05-17T16:40:49.326Z,81.03
2023-05-17T16:43:17.223Z,81.10
2023-05-17T16:45:46.501Z,81.29
2023-05-17T16:48:15.604Z,81.51
2023-05-17T16:50:43.812Z,81.36
2023-05-17T16:53:12.536Z,81.33
2023-05-17T16:55:40.618Z,80.90
2023-05-17T16:58:08.756Z,81.09
2023-05-17T17:00:37.364Z,80.98
2023-05-17T17:03:08.468Z,80.96
2023-05-17T17:05:37.521Z,81.17
2023-05-17T17:08:09.715Z,80.98
2023-05-17T17:10:37.876Z,81.22
2023-05-17T17:13:05.744Z,81.21
2023-05-17T17:15:34.102Z,81.59
2023-05-17T17:18:02.618Z,81.21
2023-05-17T17:20:30.725Z,81.30
2023-05-17T17:22:58.898Z,81.69
2023-05-17T17:25:26.700Z,82.10
2023-05-17T17:27:54.840Z,82.08
2023-05-17T17:30:22.911Z,82.16
2023-05-17T17:32:50.847Z,81.92
2023-05-17T17:35:19.228Z,81.80
2023-05-17T17:37:47.098Z,82.06
2023-05-17T17:40:15.018Z,82.18
2023-05-17T17:42:42.886Z,81.92
2023-05-17T17:45:10.925Z,82.11
2023-05-17T17:47:38.831Z,81.93
2023-05-17T17:50:07.462Z,82.38
2023-05-17T17:52:36.796Z,82.56
2023-05-17T17:55:06.046Z,82.59
2023-05-17T17:57:33.962Z,82.58
2023-05-17T18:00:01.759Z,82.63
2023-05-17T18:02:29.563Z,82.66
2023-05-17T18:04:57.654Z,82.96
2023-05-17T18:07:25.810Z,82.73
2023-05-17T18:09:53.694Z,82.53
2023-05-17T18:12:21.497Z,82.46
2023-05-17T18:14:49.667Z,82.80
2023-05-17T18:17:17.578Z,83.11
2023-05-17T18:19:46.464Z,82.79
2023-05-17T18:22:19.117Z,82.52
2023-05-17T18:24:47.580Z,83.07
2023-05-17T18:27:15.751Z,83.48
2023-05-17T18:29:43.817Z,83.25
2023-05-17T18:32:12.165Z,83.23
2023-05-17T18:34:40.268Z,82.90
2023-05-17T18:37:08.466Z,82.95
2023-05-17T18:39:37.575Z,82.96
2023-05-17T18:42:06.602Z,83.16
2023-05-17T18:44:35.481Z,82.61
2023-05-17T18:47:03.651Z,82.58
2023-05-17T18:49:32.165Z,82.50
2023-05-17T18:52:00.245Z,82.39
2023-05-17T18:54:29.308Z,82.33
2023-05-17T18:56:57.680Z,82.00
2023-05-17T18:59:29.079Z,82.32
2023-05-17T19:01:57.325Z,82.04
2023-05-17T19:04:25.774Z,82.17
2023-05-17T19:06:54.094Z,81.99
2023-05-17T19:09:21.867Z,81.83
2023-05-17T19:11:50.571Z,81.90
2023-05-17T19:14:18.477Z,81.79
2023-05-17T19:16:46.329Z,81.85
2023-05-17T19:19:14.260Z,81.72
2023-05-17T19:21:42.697Z,81.79
2023-05-17T19:24:11.055Z,81.69
2023-05-17T19:26:39.285Z,81.64
2023-05-17T19:29:07.865Z,81.70
2023-05-17T19:31:36.521Z,81.51
2023-05-17T19:34:04.787Z,81.40
2023-05-17T19:36:34.013Z,81.46
2023-05-17T19:39:02.284Z,81.29
2023-05-17T19:41:31.224Z,81.28
2023-05-17T19:43:59.422Z,81.06
2023-05-17T19:46:27.614Z,81.05
2023-05-17T19:48:57.448Z,80.92
2023-05-17T19:51:25.781Z,80.78
2023-05-17T19:53:54.388Z,80.74
2023-05-17T19:56:24.316Z,80.76
2023-05-17T19:58:53.473Z,80.38
2023-05-17T20:01:24.333Z,80.21
2023-05-17T20:03:52.471Z,80.37
2023-05-17T20:06:21.093Z,80.27
2023-05-17T20:08:49.446Z,80.11
2023-05-17T20:11:17.261Z,80.27
2023-05-17T20:13:45.066Z,79.90
2023-05-17T20:16:13.558Z,79.98
2023-05-17T20:18:43.425Z,79.67
2023-05-17T20:21:18.808Z,79.68
2023-05-17T20:23:47.028Z,79.67
2023-05-17T20:26:19.201Z,79.56
2023-05-17T20:28:46.985Z,79.53
2023-05-17T20:31:14.866Z,79.43
2023-05-17T20:33:44.592Z,79.52
2023-05-17T20:36:14.765Z,79.33
2023-05-17T20:38:43.067Z,78.82
2023-05-17T20:41:11.212Z,78.88
2023-05-17T20:43:39.043Z,78.89
2023-05-17T20:46:07.277Z,78.79
2023-05-17T20:48:36.124Z,78.80
2023-05-17T20:51:03.967Z,78.86
2023-05-17T20:53:32.421Z,78.69
2023-05-17T20:56:00.166Z,78.63
2023-05-17T20:58:31.166Z,78.47
2023-05-17T21:01:01.248Z,78.37
2023-05-17T21:03:33.483Z,78.03
2023-05-17T21:06:02.408Z,78.09
2023-05-17T21:08:30.096Z,77.79
2023-05-17T21:10:57.840Z,77.69
2023-05-17T21:13:26.429Z,77.65
2023-05-17T21:15:55.624Z,77.45
2023-05-17T21:18:23.923Z,77.73
2023-05-17T21:20:52.278Z,77.49
2023-05-17T21:23:20.328Z,77.48
2023-05-17T21:25:49.131Z,77.54
2023-05-17T21:28:17.016Z,77.34
2023-05-17T21:30:44.807Z,77.26
2023-05-17T21:33:12.535Z,77.21
2023-05-17T21:35:40.518Z,77.37
2023-05-17T21:38:09.463Z,77.45
2023-05-17T21:40:38.918Z,77.32
2023-05-17T21:43:07.479Z,77.32
2023-05-17T21:45:35.864Z,77.38
2023-05-17T21:48:04.167Z,77.33
2023-05-17T21:50:32.241Z,77.60
2023-05-17T21:53:00.615Z,77.20
2023-05-17T21:55:36.428Z,77.42
2023-05-17T21:58:16.349Z,77.22
2023-05-17T22:00:44.345Z,77.17
2023-05-17T22:03:12.412Z,77.25
2023-05-17T22:05:40.313Z,77.42
2023-05-17T22:08:07.993Z,77.07
2023-05-17T22:10:36.266Z,77.36
2023-05-17T22:13:06.181Z,77.34
2023-05-17T22:15:35.164Z,77.04
2023-05-17T22:18:05.790Z,76.98
2023-05-17T22:20:33.699Z,77.61
2023-05-17T22:23:01.429Z,77.44
2023-05-17T22:25:29.150Z,77.26
2023-05-17T22:27:56.996Z,77.13
2023-05-17T22:30:24.765Z,76.80
2023-05-17T22:32:54.885Z,76.51
2023-05-17T22:35:24.517Z,76.36
2023-05-17T22:37:53.706Z,75.82
2023-05-17T22:40:21.575Z,76.99
2023-05-17T22:42:51.541Z,77.15
2023-05-17T22:45:19.451Z,76.66
2023-05-17T22:47:47.673Z,76.34
2023-05-17T22:50:15.897Z,76.32
2023-05-17T22:52:46.176Z,76.30
2023-05-17T22:55:14.014Z,76.22
2023-05-17T22:57:42.399Z,76.17
2023-05-17T23:00:11.581Z,76.63
2023-05-17T23:02:39.515Z,75.92
2023-05-17T23:05:08.122Z,76.15
2023-05-17T23:07:39.694Z,75.69
2023-05-17T23:10:09.988Z,75.78
2023-05-17T23:12:38.707Z,75.70
2023-05-17T23:15:07.993Z,74.88
2023-05-17T23:17:36.480Z,74.62
2023-05-17T23:20:11.179Z,74.92
2023-05-17T23:22:39.742Z,75.37
2023-05-17T23:25:08.016Z,74.64
2023-05-17T23:27:36.359Z,74.74
2023-05-17T23:30:05.762Z,74.45
2023-05-17T23:32:34.200Z,75.11
2023-05-17T23:35:05.174Z,75.01
2023-05-17T23:37:33.708Z,73.79
2023-05-17T23:40:02.175Z,74.68
2023-05-17T23:42:29.895Z,74.45
2023-05-17T23:45:01.170Z,74.63
2023-05-17T23:47:29.056Z,74.96
2023-05-17T23:49:57.049Z,75.10
2023-05-17T23:52:24.985Z,74.92
2023-05-17T23:54:57.403Z,75.31
2023-05-17T23:57:25.111Z,75.27
2023-05-17T23:59:53.035Z,74.83
